Main page
METAR-TAF:

METAR-TAF

Airports :

Tartu Airport

Tartu, Estonia

latitude: 58-18N, longitude: 026-44E, elevation: 59 m

Current weather observation

The report was made 40 minutes ago, at 23:20 UTC
Wind 4 kt from the East/Northeast
Temperature -10°C
Humidity 92%
Pressure 1010 hPa
Visibility 10 km or more

METAR: EETU 042320Z AUTO 07004KT 9999 OVC010/// M10/M11 Q1010

Time: 02:00 (00:00 UTC)


TAF: missing

Weather observations and forecasts of more than 4000 airports (METAR and TAF reports).

The available stations are represented by yellow and red dots on the map.

Hover mouse over dot to see the name of the station.

Then click to see weather observations and forecasts.

To change the map : click on the green buttons with a black cross to zoom in, on the green button with a dash to zoom out, or on the green arrows for adjacent maps.


METAR-TAF: